Esquina — 2DOU6 — position and weather

sailwx.info

Track history (hours):
 
Tides and Currents Weather Stations Pressure Air Temp Water Temp Dewpoint Dewpoint Depression Visibility Wind Speed Wind Dir Waves Ship Positions

Esquina

Last reported at 2016-Apr-29 09:23 UTC. Time now 2016-Apr-30 09:00 UTC.
Position N 47°43' W 003°21'.

Type: Other ship. MMSI: 235080801.

Date/timePositionNaut miles runAvg speedWind from/ knotsBaromVisibWave heightAir tempDewpointWater temp
2016-Apr-29 09:23N 47°43' W 003°21'1 1.3
2016-Apr-29 08:33N 47°44' W 003°22'1 0.1
2016-Apr-28 17:25N 47°43' W 003°21'4 4.3
2016-Apr-28 16:33N 47°40' W 003°17'2 2.0
2016-Apr-28 15:33N 47°40' W 003°21'2 1.7
2016-Apr-28 14:33N 47°40' W 003°18'1 0.8
2016-Apr-28 13:33N 47°40' W 003°19'3 2.6
2016-Apr-28 12:33N 47°43' W 003°21'2 1.9
2016-Apr-28 11:31N 47°45' W 003°21'7 7.2
2016-Apr-28 10:33N 47°38' W 003°17'5 5.1
2016-Apr-28 09:33N 47°35' W 003°11'3 2.6
2016-Apr-28 08:33N 47°33' W 003°10'2 2.3
2016-Apr-28 07:33N 47°31' W 003°13'2 2.4
2016-Apr-28 06:33N 47°33' W 003°10'6 6.5
2016-Apr-28 05:33N 47°38' W 003°16'6 0.5
2016-Apr-27 16:32N 47°43' W 003°21'0 0.0
2016-Apr-27 15:32N 47°43' W 003°21'0 0.0
2016-Apr-25 13:33N 47°43' W 003°21'1 1.0
2016-Apr-25 12:31N 47°44' W 003°22'3 3.6
2016-Apr-25 11:33N 47°40' W 003°21'5 5.2
2016-Apr-25 10:33N 47°37' W 003°15'2 2.0
2016-Apr-25 09:33N 47°36' W 003°12'0 0.5
2016-Apr-25 08:32N 47°37' W 003°12'1 1.3
2016-Apr-25 07:33N 47°36' W 003°10'0 0.1
2016-Apr-25 06:33N 47°36' W 003°10'5 5.3
2016-Apr-25 05:33N 47°39' W 003°17'7 6.2
2016-Apr-25 04:29N 47°45' W 003°21'  
2016-Apr-21 09:33N 47°42' W 003°22'4 3.5
2016-Apr-21 08:31N 47°41' W 003°17'1 0.5
2016-Apr-21 07:32N 47°40' W 003°17'1 0.7
2016-Apr-21 06:32N 47°40' W 003°18'0 0.4
2016-Apr-21 05:33N 47°40' W 003°17'4 3.7
2016-Apr-21 04:32N 47°43' W 003°21'0 0.0
2016-Apr-20 15:28N 47°43' W 003°21'0 0.0
2016-Apr-20 14:31N 47°43' W 003°21'2 2.0
2016-Apr-20 13:33N 47°45' W 003°21'2 1.7
2016-Apr-20 12:33N 47°43' W 003°22'5 5.0
2016-Apr-20 11:33N 47°38' W 003°21'2 1.8
2016-Apr-20 10:33N 47°40' W 003°22'3 2.6
2016-Apr-20 09:31N 47°37' W 003°20'5 4.9
2016-Apr-20 08:33N 47°34' W 003°16'2 2.1
2016-Apr-20 07:33N 47°35' W 003°19'3 2.9
2016-Apr-20 06:33N 47°37' W 003°20'2 1.8
2016-Apr-20 05:33N 47°39' W 003°21'5 5.1
2016-Apr-20 04:33N 47°44' W 003°21'  
Track history (hours):
 
Tides and Currents Weather Stations Pressure Air Temp Water Temp Dewpoint Dewpoint Depression Visibility Wind Speed Wind Dir Waves Ship Positions

Esquina

Last reported at 2016-Apr-29 09:23 UTC. Time now 2016-Apr-30 09:00 UTC.
Position N 47°43' W 003°21'.

Type: Other ship. MMSI: 235080801.

Date/timePositionNaut miles runAvg speedWind from/ knotsBaromVisibWave heightAir tempDewpointWater temp
2016-Apr-29 09:23N 47°43' W 003°21'1 1.3
2016-Apr-29 08:33N 47°44' W 003°22'1 0.1
2016-Apr-28 17:25N 47°43' W 003°21'4 4.3
2016-Apr-28 16:33N 47°40' W 003°17'2 2.0
2016-Apr-28 15:33N 47°40' W 003°21'2 1.7
2016-Apr-28 14:33N 47°40' W 003°18'1 0.8
2016-Apr-28 13:33N 47°40' W 003°19'3 2.6
2016-Apr-28 12:33N 47°43' W 003°21'2 1.9
2016-Apr-28 11:31N 47°45' W 003°21'7 7.2
2016-Apr-28 10:33N 47°38' W 003°17'5 5.1
2016-Apr-28 09:33N 47°35' W 003°11'3 2.6
2016-Apr-28 08:33N 47°33' W 003°10'2 2.3
2016-Apr-28 07:33N 47°31' W 003°13'2 2.4
2016-Apr-28 06:33N 47°33' W 003°10'6 6.5
2016-Apr-28 05:33N 47°38' W 003°16'6 0.5
2016-Apr-27 16:32N 47°43' W 003°21'0 0.0
2016-Apr-27 15:32N 47°43' W 003°21'0 0.0
2016-Apr-25 13:33N 47°43' W 003°21'1 1.0
2016-Apr-25 12:31N 47°44' W 003°22'3 3.6
2016-Apr-25 11:33N 47°40' W 003°21'5 5.2
2016-Apr-25 10:33N 47°37' W 003°15'2 2.0
2016-Apr-25 09:33N 47°36' W 003°12'0 0.5
2016-Apr-25 08:32N 47°37' W 003°12'1 1.3
2016-Apr-25 07:33N 47°36' W 003°10'0 0.1
2016-Apr-25 06:33N 47°36' W 003°10'5 5.3
2016-Apr-25 05:33N 47°39' W 003°17'7 6.2
2016-Apr-25 04:29N 47°45' W 003°21'  
2016-Apr-21 09:33N 47°42' W 003°22'4 3.5
2016-Apr-21 08:31N 47°41' W 003°17'1 0.5
2016-Apr-21 07:32N 47°40' W 003°17'1 0.7
2016-Apr-21 06:32N 47°40' W 003°18'0 0.4
2016-Apr-21 05:33N 47°40' W 003°17'4 3.7
2016-Apr-21 04:32N 47°43' W 003°21'0 0.0
2016-Apr-20 15:28N 47°43' W 003°21'0 0.0
2016-Apr-20 14:31N 47°43' W 003°21'2 2.0
2016-Apr-20 13:33N 47°45' W 003°21'2 1.7
2016-Apr-20 12:33N 47°43' W 003°22'5 5.0
2016-Apr-20 11:33N 47°38' W 003°21'2 1.8
2016-Apr-20 10:33N 47°40' W 003°22'3 2.6
2016-Apr-20 09:31N 47°37' W 003°20'5 4.9
2016-Apr-20 08:33N 47°34' W 003°16'2 2.1
2016-Apr-20 07:33N 47°35' W 003°19'3 2.9
2016-Apr-20 06:33N 47°37' W 003°20'2 1.8
2016-Apr-20 05:33N 47°39' W 003°21'5 5.1
2016-Apr-20 04:33N 47°44' W 003°21'  

Dump ship's entire track history